Time;durP1;ratioP1;P1;durP2;ratioP2;P2;SDS_P1;SDS_P2;PMS_P1;PMS_P2;Temp;Humidity;BMP_temperature;BMP_pressure;BME280_temperature;BME280_humidity;BME280_pressure;Samples;Min_cycle;Max_cycle;Signal;HPM_P1;HPM_P2
2024/02/25 00:01:12;;;;;;;4.90;2.25;;;6.70;48.40;;;;;;5076797;28;20487;-74
2024/02/25 00:03:38;;;;;;;3.67;2.25;;;6.70;47.50;;;;;;5073751;28;20850;-73
2024/02/25 00:06:04;;;;;;;6.30;3.05;;;6.70;47.90;;;;;;5074019;28;20379;-73
2024/02/25 00:08:30;;;;;;;6.03;3.03;;;6.70;48.80;;;;;;5073060;28;20862;-73
2024/02/25 00:10:55;;;;;;;3.17;2.20;;;6.80;48.60;;;;;;5072693;28;20420;-75
2024/02/25 00:13:21;;;;;;;5.47;3.10;;;6.70;47.90;;;;;;5072671;28;20432;-75
2024/02/25 00:15:47;;;;;;;6.22;3.15;;;6.80;48.60;;;;;;5074310;28;20445;-75
2024/02/25 00:18:13;;;;;;;4.45;2.42;;;6.90;49.10;;;;;;5074783;28;20388;-76
2024/02/25 00:20:39;;;;;;;6.30;2.70;;;7.00;47.90;;;;;;5074600;28;20406;-73
2024/02/25 00:23:04;;;;;;;3.00;2.27;;;6.90;49.40;;;;;;5074201;28;20380;-76
2024/02/25 00:25:30;;;;;;;7.13;3.00;;;6.90;50.60;;;;;;5072078;28;20485;-75
2024/02/25 00:27:55;;;;;;;4.90;2.40;;;6.90;50.40;;;;;;5073349;28;20424;-72
2024/02/25 00:30:21;;;;;;;4.20;2.30;;;6.90;50.90;;;;;;5071187;28;20880;-74
2024/02/25 00:32:46;;;;;;;3.90;1.80;;;6.80;51.30;;;;;;5071912;28;20396;-73
2024/02/25 00:35:12;;;;;;;4.40;2.33;;;6.80;51.10;;;;;;5071575;28;20743;-71
2024/02/25 00:37:38;;;;;;;5.17;2.57;;;6.90;51.40;;;;;;5072618;28;20535;-73
2024/02/25 00:40:04;;;;;;;3.90;2.10;;;6.90;50.70;;;;;;5072096;28;20434;-74
2024/02/25 00:42:30;;;;;;;3.50;2.03;;;6.90;50.00;;;;;;5072374;28;20388;-72
2024/02/25 00:44:55;;;;;;;4.30;1.80;;;6.90;50.50;;;;;;5073297;28;20429;-73
2024/02/25 00:47:21;;;;;;;4.03;1.90;;;6.80;49.40;;;;;;5073544;28;20388;-72
2024/02/25 00:49:48;;;;;;;5.53;2.90;;;6.90;49.80;;;;;;5072721;28;20388;-71
2024/02/25 00:52:13;;;;;;;3.88;2.30;;;6.80;50.00;;;;;;5072291;28;20895;-73
2024/02/25 00:54:43;;;;;;;5.35;2.53;;;6.70;50.40;;;;;;5071612;28;20466;-72
2024/02/25 00:57:10;;;;;;;4.25;2.22;;;6.70;49.90;;;;;;5087097;28;20392;-74
2024/02/25 00:59:35;;;;;;;4.97;2.80;;;6.80;49.30;;;;;;5071781;28;20444;-73
2024/02/25 01:02:01;;;;;;;4.10;1.92;;;6.80;50.20;;;;;;5087007;28;20434;-74
2024/02/25 01:04:26;;;;;;;3.70;1.80;;;6.70;50.10;;;;;;5069694;28;20391;-72
2024/02/25 01:06:52;;;;;;;3.83;2.43;;;6.90;48.70;;;;;;5071862;28;20388;-72
2024/02/25 01:09:18;;;;;;;6.30;2.20;;;6.80;49.30;;;;;;5071478;28;20466;-74
2024/02/25 01:11:44;;;;;;;3.20;1.80;;;6.90;48.40;;;;;;5071121;28;20379;-73
2024/02/25 01:14:12;;;;;;;2.75;2.00;;;7.00;47.60;;;;;;5070977;28;20430;-74
2024/02/25 01:16:39;;;;;;;2.78;1.40;;;7.00;47.30;;;;;;5070932;28;20471;-73
2024/02/25 01:19:04;;;;;;;3.17;2.00;;;7.00;46.80;;;;;;5071358;28;20461;-72
2024/02/25 01:21:30;;;;;;;7.70;2.50;;;7.00;47.10;;;;;;5071182;28;20489;-73
2024/02/25 01:23:55;;;;;;;3.37;1.90;;;7.20;46.10;;;;;;5071364;28;20593;-71
2024/02/25 01:26:21;;;;;;;4.30;1.70;;;7.20;45.60;;;;;;5071029;28;20380;-72
2024/02/25 01:28:46;;;;;;;3.23;1.90;;;7.20;45.60;;;;;;5071153;28;20437;-72
2024/02/25 01:31:12;;;;;;;2.75;1.80;;;7.20;45.70;;;;;;5070801;28;20866;-74
2024/02/25 01:33:38;;;;;;;5.55;2.30;;;7.20;45.50;;;;;;5069322;28;20875;-72
2024/02/25 01:36:04;;;;;;;5.03;3.17;;;7.20;46.10;;;;;;5070511;28;20806;-73
2024/02/25 01:38:29;;;;;;;4.15;2.63;;;7.20;48.00;;;;;;5071114;28;20403;-71
2024/02/25 01:40:55;;;;;;;3.67;1.97;;;7.40;46.60;;;;;;5070718;28;20481;-71
2024/02/25 01:43:20;;;;;;;2.90;1.70;;;7.40;45.60;;;;;;5070812;28;20605;-71
2024/02/25 01:45:46;;;;;;;3.93;1.63;;;7.40;44.80;;;;;;5070761;28;20376;-72
2024/02/25 01:48:15;;;;;;;3.03;1.47;;;7.50;44.10;;;;;;5073143;28;20378;-74
2024/02/25 01:50:41;;;;;;;3.85;1.60;;;7.30;44.40;;;;;;5074213;28;20466;-74
2024/02/25 01:53:08;;;;;;;2.97;1.42;;;7.30;44.40;;;;;;5074346;28;20441;-73
2024/02/25 01:55:35;;;;;;;1.52;1.15;;;7.30;44.60;;;;;;5074204;28;20860;-72
2024/02/25 01:58:05;;;;;;;4.07;1.70;;;7.30;44.60;;;;;;5074429;28;20735;-73
2024/02/25 02:00:33;;;;;;;2.78;1.60;;;7.40;44.10;;;;;;5074487;28;20413;-72
2024/02/25 02:02:59;;;;;;;3.60;1.50;;;7.40;44.60;;;;;;5074525;28;20380;-72
2024/02/25 02:05:26;;;;;;;2.42;1.75;;;7.50;43.40;;;;;;5074084;28;20383;-73
2024/02/25 02:07:52;;;;;;;1.70;1.30;;;7.60;43.00;;;;;;5074697;28;20459;-73
2024/02/25 02:10:18;;;;;;;3.63;2.10;;;7.60;42.80;;;;;;5074187;28;20711;-73
2024/02/25 02:12:46;;;;;;;1.75;1.50;;;7.60;43.90;;;;;;5074018;28;20391;-72
2024/02/25 02:15:12;;;;;;;2.08;1.60;;;7.60;42.70;;;;;;5074841;28;20391;-72
2024/02/25 02:17:40;;;;;;;2.92;1.80;;;7.60;43.20;;;;;;5074520;28;20379;-72
2024/02/25 02:20:15;;;;;;;4.28;1.92;;;7.50;42.80;;;;;;5074341;28;20411;-72
2024/02/25 02:22:41;;;;;;;7.80;1.80;;;7.50;43.90;;;;;;5075778;28;20380;-72
2024/02/25 02:25:08;;;;;;;2.50;1.58;;;7.50;42.90;;;;;;5086852;22;20913;-77
2024/02/25 02:27:40;;;;;;;2.78;1.50;;;7.50;43.30;;;;;;5034576;28;20399;-77
2024/02/25 02:30:07;;;;;;;3.33;1.80;;;7.40;43.30;;;;;;5034005;28;20391;-76
2024/02/25 02:32:33;;;;;;;2.85;1.70;;;7.40;43.60;;;;;;5034173;28;20390;-75
2024/02/25 02:34:58;;;;;;;2.88;1.70;;;7.40;43.70;;;;;;5034033;28;20387;-77
2024/02/25 02:37:24;;;;;;;2.78;1.52;;;7.40;44.10;;;;;;5034388;28;20391;-77
2024/02/25 02:39:49;;;;;;;2.15;1.35;;;7.40;43.60;;;;;;5034442;28;20411;-76
2024/02/25 02:42:15;;;;;;;4.18;2.05;;;7.40;43.70;;;;;;5034429;28;20397;-76
2024/02/25 02:44:45;;;;;;;2.60;1.60;;;7.40;44.20;;;;;;5033485;28;20395;-77
2024/02/25 02:47:12;;;;;;;4.10;1.70;;;7.50;43.90;;;;;;5032998;28;20375;-76
2024/02/25 02:49:37;;;;;;;3.38;1.70;;;7.50;43.30;;;;;;5033018;28;20437;-76
2024/02/25 02:52:03;;;;;;;2.00;1.30;;;7.50;43.60;;;;;;5032720;28;20391;-76
2024/02/25 02:54:29;;;;;;;3.00;1.70;;;7.50;44.00;;;;;;5033079;28;20423;-76
2024/02/25 02:56:54;;;;;;;4.32;1.40;;;7.40;43.90;;;;;;5033116;28;20381;-76
2024/02/25 02:59:23;;;;;;;1.83;1.23;;;7.40;44.20;;;;;;5032081;28;20406;-76
2024/02/25 03:01:52;;;;;;;2.53;1.60;;;7.40;44.10;;;;;;5034167;28;20394;-74
2024/02/25 03:04:18;;;;;;;1.90;1.50;;;7.40;44.20;;;;;;5033745;28;20390;-76
2024/02/25 03:06:44;;;;;;;2.22;1.40;;;7.40;44.40;;;;;;5034703;28;20387;-76
2024/02/25 03:09:12;;;;;;;3.35;1.60;;;7.50;43.70;;;;;;5035436;28;20378;-76
2024/02/25 03:11:38;;;;;;;3.35;1.55;;;7.40;43.80;;;;;;5040681;28;20391;-77
2024/02/25 03:14:04;;;;;;;2.85;1.58;;;7.30;44.30;;;;;;5051685;28;20519;-76
2024/02/25 03:16:29;;;;;;;1.80;1.40;;;7.30;44.40;;;;;;5043674;28;20387;-75
2024/02/25 03:18:55;;;;;;;2.00;1.40;;;7.30;44.50;;;;;;5045429;28;20398;-76
2024/02/25 03:21:20;;;;;;;1.80;1.20;;;7.40;44.50;;;;;;5049218;28;20418;-76
2024/02/25 03:23:46;;;;;;;2.00;1.15;;;7.50;43.50;;;;;;5041649;28;20756;-77
2024/02/25 03:26:16;;;;;;;2.50;1.08;;;7.40;43.60;;;;;;5034620;28;20441;-76
2024/02/25 03:28:41;;;;;;;1.80;1.20;;;7.40;44.00;;;;;;5038807;28;20752;-76
2024/02/25 03:31:07;;;;;;;2.53;1.10;;;7.40;43.70;;;;;;5044419;28;20383;-76
2024/02/25 03:33:34;;;;;;;2.30;1.20;;;7.50;44.00;;;;;;5032933;28;20848;-76
2024/02/25 03:35:59;;;;;;;1.47;1.10;;;7.50;43.40;;;;;;5033000;28;20426;-75
2024/02/25 03:38:25;;;;;;;1.10;1.00;;;7.50;43.70;;;;;;5035579;28;20425;-76
2024/02/25 03:40:50;;;;;;;1.20;1.00;;;7.40;43.50;;;;;;5034172;28;20820;-76
2024/02/25 03:43:17;;;;;;;2.00;1.07;;;7.50;43.50;;;;;;5032993;28;20840;-75
2024/02/25 03:45:43;;;;;;;1.77;1.40;;;7.50;43.70;;;;;;5032902;28;20383;-77
2024/02/25 03:48:09;;;;;;;1.00;0.80;;;7.40;44.40;;;;;;5032998;28;20526;-75
2024/02/25 03:50:35;;;;;;;1.30;1.00;;;7.40;43.60;;;;;;5032767;28;20395;-77
2024/02/25 03:53:00;;;;;;;1.50;0.80;;;7.40;43.60;;;;;;5033058;28;20387;-77
2024/02/25 03:55:28;;;;;;;1.50;0.93;;;7.50;43.10;;;;;;5032542;28;20745;-77
2024/02/25 03:57:54;;;;;;;1.17;0.90;;;7.40;43.70;;;;;;5032166;28;20570;-76
2024/02/25 04:00:20;;;;;;;2.40;1.00;;;7.40;43.80;;;;;;5031688;28;20917;-77
2024/02/25 04:02:45;;;;;;;2.30;1.10;;;7.40;43.80;;;;;;5030190;28;20449;-76
2024/02/25 04:05:14;;;;;;;2.30;0.98;;;7.40;43.90;;;;;;5029843;28;20391;-74
2024/02/25 04:07:42;;;;;;;1.65;1.10;;;7.40;44.20;;;;;;5031293;28;20462;-75
2024/02/25 04:10:08;;;;;;;1.10;1.00;;;7.40;43.80;;;;;;5031661;28;20448;-76
2024/02/25 04:12:35;;;;;;;3.22;1.30;;;7.40;44.10;;;;;;5031660;28;20386;-76
2024/02/25 04:15:00;;;;;;;2.15;1.00;;;7.30;44.10;;;;;;5031625;28;20398;-75
2024/02/25 04:17:26;;;;;;;1.88;1.15;;;7.40;44.30;;;;;;5031720;28;20375;-73
2024/02/25 04:19:52;;;;;;;1.40;0.90;;;7.30;44.60;;;;;;5031875;28;20403;-75
2024/02/25 04:22:18;;;;;;;3.28;1.20;;;7.40;44.90;;;;;;5031628;28;20383;-75
2024/02/25 04:24:44;;;;;;;1.90;1.10;;;7.40;45.90;;;;;;5031580;28;20440;-77
2024/02/25 04:27:09;;;;;;;2.43;1.10;;;7.40;46.70;;;;;;5031614;28;20387;-77
2024/02/25 04:29:38;;;;;;;1.57;0.90;;;7.40;47.20;;;;;;5031363;28;20398;-77
2024/02/25 04:32:04;;;;;;;1.10;1.00;;;7.30;47.70;;;;;;5031651;28;20394;-76
2024/02/25 04:34:30;;;;;;;1.40;0.90;;;7.30;48.30;;;;;;5031391;28;20379;-77
2024/02/25 04:36:55;;;;;;;2.45;0.95;;;7.30;48.50;;;;;;5031138;28;20520;-77
2024/02/25 04:39:21;;;;;;;1.90;1.20;;;7.30;48.10;;;;;;5029651;28;20395;-77
2024/02/25 04:41:46;;;;;;;1.30;0.90;;;7.30;48.10;;;;;;5031149;28;20407;-76
2024/02/25 04:44:12;;;;;;;1.60;0.85;;;7.20;47.80;;;;;;5031184;28;20398;-77
2024/02/25 04:46:39;;;;;;;1.33;0.90;;;7.30;48.00;;;;;;5032133;28;20801;-77
2024/02/25 04:49:05;;;;;;;1.70;1.00;;;7.20;48.00;;;;;;5032731;28;20387;-78
2024/02/25 04:51:34;;;;;;;2.00;1.20;;;7.20;48.10;;;;;;5031792;28;20394;-76
2024/02/25 04:54:00;;;;;;;1.40;1.20;;;7.30;47.90;;;;;;5032653;28;20479;-77
2024/02/25 04:56:27;;;;;;;1.70;0.98;;;7.30;47.50;;;;;;5033619;28;20442;-76
2024/02/25 04:58:53;;;;;;;1.48;0.80;;;7.20;48.00;;;;;;5031829;28;20528;-77
2024/02/25 05:01:18;;;;;;;1.10;0.80;;;7.30;48.00;;;;;;5032911;28;20411;-77
2024/02/25 05:03:44;;;;;;;1.50;0.90;;;7.30;48.10;;;;;;5031039;28;20380;-77
2024/02/25 05:06:10;;;;;;;1.70;0.80;;;7.30;48.10;;;;;;5032219;28;20415;-76
2024/02/25 05:08:35;;;;;;;2.67;1.10;;;7.20;48.50;;;;;;5031154;28;20441;-77
2024/02/25 05:11:01;;;;;;;1.10;0.90;;;7.20;48.40;;;;;;5030865;28;20383;-76
2024/02/25 05:13:26;;;;;;;1.50;1.17;;;7.20;48.50;;;;;;5031025;28;20391;-78
2024/02/25 05:15:52;;;;;;;1.20;0.90;;;7.30;48.70;;;;;;5030765;28;20387;-75
2024/02/25 05:18:17;;;;;;;2.90;1.23;;;7.20;48.80;;;;;;5032441;28;20757;-75
2024/02/25 05:20:43;;;;;;;2.80;1.20;;;7.20;49.10;;;;;;5030850;28;20841;-77
2024/02/25 05:23:08;;;;;;;2.20;1.20;;;7.20;48.80;;;;;;5033268;28;20742;-77
2024/02/25 05:25:34;;;;;;;1.70;1.00;;;7.20;49.10;;;;;;5034268;28;20399;-76
2024/02/25 05:27:59;;;;;;;1.70;0.90;;;7.20;49.50;;;;;;5035213;28;20781;-74
2024/02/25 05:30:25;;;;;;;2.10;1.00;;;7.20;49.20;;;;;;5035250;28;20399;-78
2024/02/25 05:32:52;;;;;;;1.40;1.00;;;7.20;48.80;;;;;;5035128;28;21018;-77
2024/02/25 05:35:17;;;;;;;1.25;1.00;;;7.20;48.80;;;;;;5034816;28;20382;-77
2024/02/25 05:37:43;;;;;;;1.50;0.90;;;7.20;49.30;;;;;;5034578;28;20728;-77
2024/02/25 05:40:10;;;;;;;2.38;0.90;;;7.10;49.70;;;;;;5035484;28;20414;-77
2024/02/25 05:42:35;;;;;;;2.88;1.05;;;7.10;50.00;;;;;;5034719;28;20483;-76
2024/02/25 05:45:02;;;;;;;1.83;1.10;;;7.10;50.20;;;;;;5034642;28;20982;-76
2024/02/25 05:47:28;;;;;;;1.73;0.90;;;7.20;49.50;;;;;;5035257;28;20401;-75
2024/02/25 05:49:55;;;;;;;3.25;1.58;;;7.30;49.20;;;;;;5033696;28;20394;-77
2024/02/25 05:52:21;;;;;;;1.90;1.10;;;7.30;50.00;;;;;;5036189;28;20398;-77
2024/02/25 05:54:46;;;;;;;1.77;1.40;;;7.20;50.10;;;;;;5035146;28;20882;-75
2024/02/25 05:57:12;;;;;;;2.40;0.90;;;7.10;50.50;;;;;;5035000;28;20394;-75
2024/02/25 05:59:37;;;;;;;2.42;1.00;;;7.10;50.40;;;;;;5038074;28;20437;-78
2024/02/25 06:02:03;;;;;;;2.80;0.93;;;7.10;50.70;;;;;;5039567;28;20455;-77
2024/02/25 06:04:29;;;;;;;2.42;0.90;;;7.00;50.80;;;;;;5035775;28;20854;-76
2024/02/25 06:06:55;;;;;;;1.92;1.30;;;7.00;51.00;;;;;;5034426;28;20379;-76
2024/02/25 06:09:21;;;;;;;2.50;1.20;;;7.00;52.20;;;;;;5039951;28;20454;-75
2024/02/25 06:11:48;;;;;;;1.10;1.00;;;7.10;51.30;;;;;;5043569;28;20367;-72
2024/02/25 06:14:14;;;;;;;1.70;1.00;;;7.10;51.30;;;;;;5045579;28;20379;-78
2024/02/25 06:16:40;;;;;;;2.53;1.10;;;7.10;51.20;;;;;;5034555;28;20396;-77
2024/02/25 06:19:06;;;;;;;3.00;1.20;;;7.10;51.40;;;;;;5034164;28;20387;-77
2024/02/25 06:21:32;;;;;;;2.83;1.15;;;7.10;51.10;;;;;;5033747;28;20766;-78
2024/02/25 06:23:57;;;;;;;2.40;1.30;;;7.00;52.40;;;;;;5033620;28;20394;-78
2024/02/25 06:26:23;;;;;;;2.50;1.17;;;7.00;52.90;;;;;;5033241;28;20527;-77
2024/02/25 06:28:49;;;;;;;1.30;1.00;;;7.10;51.70;;;;;;5033962;28;20800;-77
2024/02/25 06:31:14;;;;;;;1.10;0.90;;;7.00;51.60;;;;;;5035372;28;20387;-77
2024/02/25 06:33:40;;;;;;;2.00;1.10;;;7.00;51.50;;;;;;5035298;28;20398;-77
2024/02/25 06:36:06;;;;;;;2.00;0.80;;;7.00;51.80;;;;;;5034683;28;20398;-77
2024/02/25 06:38:32;;;;;;;1.10;0.90;;;7.00;51.30;;;;;;5034362;28;20453;-76
2024/02/25 06:40:58;;;;;;;1.23;1.00;;;6.90;52.10;;;;;;5036105;28;21025;-78
2024/02/25 06:43:24;;;;;;;4.20;1.10;;;6.90;52.70;;;;;;5034137;28;20379;-77
2024/02/25 06:45:50;;;;;;;2.10;1.10;;;6.90;52.30;;;;;;5039523;28;20406;-77
2024/02/25 06:48:16;;;;;;;2.90;1.00;;;6.90;52.20;;;;;;5036449;28;20383;-76
2024/02/25 06:50:41;;;;;;;1.10;0.80;;;6.90;52.30;;;;;;5042471;28;20379;-77
2024/02/25 06:53:07;;;;;;;2.40;0.97;;;6.90;52.20;;;;;;5040399;28;20406;-76
2024/02/25 06:55:32;;;;;;;2.50;1.00;;;6.90;51.60;;;;;;5036609;28;20390;-77
2024/02/25 06:57:58;;;;;;;2.00;0.90;;;7.00;51.70;;;;;;5040112;28;20762;-77
2024/02/25 07:00:23;;;;;;;1.13;0.80;;;7.00;51.70;;;;;;5040199;28;20431;-76
2024/02/25 07:02:54;;;;;;;2.10;0.80;;;7.00;51.50;;;;;;5041052;28;20383;-76
2024/02/25 07:05:20;;;;;;;1.45;0.85;;;7.00;51.20;;;;;;5037045;28;20789;-77
2024/02/25 07:07:46;;;;;;;2.00;0.90;;;6.90;51.70;;;;;;5033748;28;20375;-77
2024/02/25 07:10:11;;;;;;;1.85;0.80;;;6.90;52.10;;;;;;5036418;28;20399;-75
2024/02/25 07:12:37;;;;;;;2.60;0.90;;;7.00;52.10;;;;;;5033159;28;20474;-76
2024/02/25 07:15:03;;;;;;;3.00;1.10;;;7.20;50.90;;;;;;5041733;28;20931;-78
2024/02/25 07:17:28;;;;;;;1.48;1.13;;;7.30;50.30;;;;;;5051349;28;20478;-76
2024/02/25 07:19:54;;;;;;;1.60;1.20;;;7.30;49.60;;;;;;5034782;28;20406;-77
2024/02/25 07:22:19;;;;;;;1.25;0.82;;;7.20;50.00;;;;;;5034717;28;20486;-76
2024/02/25 07:24:45;;;;;;;2.20;1.30;;;7.20;50.70;;;;;;5033933;28;20399;-76
2024/02/25 07:27:10;;;;;;;2.08;1.10;;;7.20;50.50;;;;;;5040792;28;20398;-77
2024/02/25 07:29:36;;;;;;;2.20;1.10;;;7.20;50.80;;;;;;5055438;28;20385;-73
2024/02/25 07:32:01;;;;;;;2.30;1.30;;;7.30;51.10;;;;;;5039315;28;20484;-74
2024/02/25 07:34:27;;;;;;;1.70;1.20;;;7.40;50.70;;;;;;5049354;28;20845;-76
2024/02/25 07:36:52;;;;;;;2.90;1.30;;;7.40;50.30;;;;;;5043754;28;20478;-72
2024/02/25 07:39:18;;;;;;;2.30;1.60;;;7.50;49.60;;;;;;5055980;28;20451;-72
2024/02/25 07:41:44;;;;;;;3.00;1.50;;;7.60;49.50;;;;;;5036074;28;20411;-72
2024/02/25 07:44:10;;;;;;;1.40;1.00;;;7.60;49.60;;;;;;5031749;28;20387;-73
2024/02/25 07:46:36;;;;;;;1.33;1.17;;;7.60;48.60;;;;;;5030470;28;20406;-76
2024/02/25 07:49:02;;;;;;;1.40;1.20;;;7.70;48.20;;;;;;5031507;28;20766;-75
2024/02/25 07:51:33;;;;;;;2.08;1.10;;;7.80;47.80;;;;;;5039347;28;20498;-78
2024/02/25 07:53:59;;;;;;;2.20;1.30;;;8.00;46.70;;;;;;5032248;28;20836;-76
2024/02/25 07:56:24;;;;;;;2.03;1.10;;;8.00;46.50;;;;;;5028876;28;20398;-76
2024/02/25 07:58:50;;;;;;;1.60;1.00;;;8.00;46.20;;;;;;5040036;28;20511;-76
2024/02/25 08:01:15;;;;;;;2.00;1.20;;;8.10;46.10;;;;;;5042294;28;20859;-75
2024/02/25 08:03:41;;;;;;;3.33;1.00;;;8.20;45.50;;;;;;5039486;28;20399;-75
2024/02/25 08:06:07;;;;;;;1.60;0.90;;;8.20;45.30;;;;;;5029952;28;20423;-76
2024/02/25 08:08:32;;;;;;;1.63;1.10;;;8.30;44.60;;;;;;5029868;28;21079;-75
2024/02/25 08:10:58;;;;;;;2.83;1.10;;;8.40;44.50;;;;;;5034007;28;20437;-76
2024/02/25 08:13:23;;;;;;;1.70;1.10;;;8.50;43.40;;;;;;5034978;28;20949;-75
2024/02/25 08:15:49;;;;;;;2.10;1.23;;;8.50;43.30;;;;;;5029925;28;20434;-76
2024/02/25 08:18:15;;;;;;;1.60;1.10;;;8.40;43.70;;;;;;5046053;28;20393;-77
2024/02/25 08:20:40;;;;;;;2.45;1.58;;;8.30;43.90;;;;;;5042529;28;20413;-75
2024/02/25 08:23:06;;;;;;;3.20;1.08;;;8.30;44.60;;;;;;5030336;28;20390;-76
2024/02/25 08:25:31;;;;;;;1.90;1.05;;;8.20;45.00;;;;;;5039638;28;20397;-75
2024/02/25 08:27:57;;;;;;;2.10;1.00;;;8.40;44.30;;;;;;5059846;28;20386;-72
2024/02/25 08:30:23;;;;;;;2.37;1.00;;;8.70;43.10;;;;;;5055749;28;20799;-76
2024/02/25 08:32:50;;;;;;;2.10;1.10;;;9.40;43.30;;;;;;5034990;28;20402;-73
2024/02/25 08:35:15;;;;;;;1.70;1.15;;;8.80;41.50;;;;;;5034460;28;20391;-77
2024/02/25 08:37:41;;;;;;;2.27;1.00;;;9.10;40.20;;;;;;5033508;28;20881;-74
2024/02/25 08:40:07;;;;;;;1.27;0.90;;;9.10;40.50;;;;;;5032871;28;20469;-75
2024/02/25 08:42:33;;;;;;;1.77;1.10;;;9.10;40.50;;;;;;5032128;28;20468;-73
2024/02/25 08:44:58;;;;;;;1.73;1.10;;;9.10;40.40;;;;;;5033756;28;20402;-75
2024/02/25 08:47:24;;;;;;;2.70;1.30;;;9.20;40.00;;;;;;5040708;28;20379;-76
2024/02/25 08:49:50;;;;;;;2.90;1.30;;;9.30;40.00;;;;;;5044528;28;20417;-73
2024/02/25 08:52:16;;;;;;;1.83;1.10;;;9.40;39.70;;;;;;5035794;28;20453;-73
2024/02/25 08:54:43;;;;;;;1.80;1.30;;;9.50;39.40;;;;;;5033924;28;20399;-73
2024/02/25 08:57:09;;;;;;;2.00;0.90;;;9.60;38.60;;;;;;5033633;28;20387;-74
2024/02/25 08:59:35;;;;;;;4.70;1.80;;;9.70;38.20;;;;;;5037218;28;20892;-73
2024/02/25 09:02:01;;;;;;;2.97;0.90;;;9.80;37.90;;;;;;5036946;28;20387;-74
2024/02/25 09:04:30;;;;;;;2.33;1.10;;;9.80;36.60;;;;;;5036885;28;20391;-78
2024/02/25 09:06:57;;;;;;;1.88;0.80;;;9.90;37.00;;;;;;5056880;28;20363;-73
2024/02/25 09:09:23;;;;;;;1.80;1.00;;;9.90;36.80;;;;;;5058545;28;20442;-75
2024/02/25 09:11:49;;;;;;;1.20;0.70;;;9.90;36.50;;;;;;5058909;28;20407;-76
2024/02/25 09:14:14;;;;;;;1.50;1.10;;;10.00;36.20;;;;;;5058223;28;20482;-74
2024/02/25 09:16:40;;;;;;;2.22;1.20;;;9.90;36.00;;;;;;5052089;28;20393;-74
2024/02/25 09:19:06;;;;;;;1.77;0.85;;;9.90;38.20;;;;;;5038567;28;20387;-72
2024/02/25 09:21:31;;;;;;;1.20;0.82;;;9.90;36.00;;;;;;5036814;28;20421;-70
2024/02/25 09:23:57;;;;;;;2.30;1.07;;;10.00;35.70;;;;;;5036860;28;20395;-73
2024/02/25 09:26:23;;;;;;;2.15;1.00;;;10.00;35.50;;;;;;5035611;28;20401;-72
2024/02/25 09:28:48;;;;;;;1.20;0.77;;;10.20;34.90;;;;;;5035640;28;20379;-72
2024/02/25 09:31:18;;;;;;;1.40;1.00;;;10.30;33.70;;;;;;5035278;28;20409;-74
2024/02/25 09:33:45;;;;;;;3.08;1.00;;;10.20;34.00;;;;;;5035089;28;20411;-73
2024/02/25 09:36:11;;;;;;;2.90;0.90;;;10.40;34.30;;;;;;5035001;28;20385;-74
2024/02/25 09:38:36;;;;;;;2.10;0.90;;;10.20;33.20;;;;;;5034677;28;20446;-74
2024/02/25 09:41:04;;;;;;;1.60;0.90;;;10.50;32.70;;;;;;5035070;28;20442;-74
2024/02/25 09:43:30;;;;;;;1.20;0.90;;;10.60;32.30;;;;;;5034433;28;20387;-74
2024/02/25 09:45:59;;;;;;;3.03;1.00;;;10.70;32.10;;;;;;5034788;28;20877;-75
2024/02/25 09:48:25;;;;;;;2.30;1.10;;;10.70;32.00;;;;;;5035484;28;20383;-74
2024/02/25 09:50:52;;;;;;;2.47;1.00;;;10.70;31.90;;;;;;5037164;28;20394;-75
2024/02/25 09:53:20;;;;;;;3.00;1.20;;;10.60;31.60;;;;;;5047262;28;20382;-77
2024/02/25 09:55:49;;;;;;;3.50;1.35;;;10.60;30.80;;;;;;5027340;28;20433;-77
2024/02/25 09:58:17;;;;;;;2.47;1.08;;;10.70;31.60;;;;;;5037004;28;20410;-77
2024/02/25 10:00:43;;;;;;;3.38;1.20;;;11.00;30.40;;;;;;5041800;28;20410;-77
2024/02/25 10:03:12;;;;;;;3.20;1.00;;;11.10;30.00;;;;;;5047796;28;20387;-74
2024/02/25 10:05:37;;;;;;;4.40;1.10;;;11.00;28.90;;;;;;5049668;28;20411;-76
2024/02/25 10:08:10;;;;;;;3.73;1.00;;;10.90;29.60;;;;;;5040384;28;20449;-76
2024/02/25 10:10:36;;;;;;;4.15;1.15;;;10.80;29.60;;;;;;5035262;28;20375;-75
2024/02/25 10:13:03;;;;;;;1.30;0.85;;;10.70;30.20;;;;;;5037181;28;20865;-77
2024/02/25 10:15:29;;;;;;;3.72;1.60;;;10.60;30.90;;;;;;5039303;28;20391;-75
2024/02/25 10:17:55;;;;;;;3.58;1.20;;;10.70;30.90;;;;;;5042697;28;20410;-75
2024/02/25 10:20:20;;;;;;;3.80;1.10;;;10.60;30.90;;;;;;5039650;28;20403;-76
2024/02/25 10:22:46;;;;;;;2.67;1.17;;;10.80;30.20;;;;;;5039059;28;20466;-76
2024/02/25 10:25:11;;;;;;;4.40;1.20;;;10.90;30.20;;;;;;5034055;28;20402;-76
2024/02/25 10:27:37;;;;;;;2.33;1.00;;;11.00;30.10;;;;;;5035419;28;20843;-75
2024/02/25 10:30:05;;;;;;;1.42;0.80;;;11.10;30.00;;;;;;5034931;28;20449;-74
2024/02/25 10:32:32;;;;;;;2.55;1.13;;;11.30;29.60;;;;;;5038733;28;20861;-76
2024/02/25 10:35:01;;;;;;;1.50;1.08;;;11.50;28.90;;;;;;5038697;28;20395;-76
2024/02/25 10:37:28;;;;;;;3.45;1.10;;;11.60;28.80;;;;;;5039233;28;20391;-76
2024/02/25 10:40:05;;;;;;;3.67;1.33;;;11.90;28.20;;;;;;5038211;28;20407;-77
2024/02/25 10:42:33;;;;;;;2.38;1.10;;;12.00;27.10;;;;;;5039426;28;20395;-77
2024/02/25 10:44:59;;;;;;;2.75;1.20;;;12.30;26.20;;;;;;5039266;28;20423;-76
2024/02/25 10:47:30;;;;;;;3.00;1.10;;;12.20;26.00;;;;;;5037572;28;20399;-75
2024/02/25 10:49:56;;;;;;;5.32;1.27;;;12.10;26.70;;;;;;5036284;28;20466;-76
2024/02/25 10:52:27;;;;;;;7.30;1.20;;;12.20;26.20;;;;;;5038453;28;20411;-75
2024/02/25 10:54:53;;;;;;;3.42;1.23;;;12.00;26.40;;;;;;5036127;28;20383;-76
2024/02/25 10:57:20;;;;;;;3.15;1.30;;;12.10;26.10;;;;;;5039475;28;21119;-76
2024/02/25 10:59:47;;;;;;;3.40;1.00;;;12.10;26.10;;;;;;5036005;28;20402;-77
2024/02/25 11:02:20;;;;;;;8.80;1.83;;;12.30;25.70;;;;;;5035220;28;20825;-76
2024/02/25 11:04:47;;;;;;;3.45;1.20;;;12.10;25.70;;;;;;5037551;28;20383;-76
2024/02/25 11:07:14;;;;;;;4.65;1.10;;;12.10;25.80;;;;;;5040337;28;20379;-78
2024/02/25 11:09:41;;;;;;;3.90;1.27;;;11.90;26.10;;;;;;5034972;28;20391;-78
2024/02/25 11:12:14;;;;;;;3.20;1.20;;;11.80;27.10;;;;;;5034954;28;20950;-78
2024/02/25 11:14:48;;;;;;;5.22;1.10;;;12.00;26.10;;;;;;5034291;28;20383;-77
2024/02/25 11:17:26;;;;;;;2.30;1.20;;;12.10;25.80;;;;;;5034726;28;20894;-77
2024/02/25 11:20:22;;;;;;;2.53;1.00;;;12.00;26.00;;;;;;5039418;28;20776;-77
2024/02/25 11:22:50;;;;;;;1.98;1.10;;;12.10;26.50;;;;;;5032750;28;20395;-75
2024/02/25 11:25:30;;;;;;;4.30;1.53;;;12.20;26.80;;;;;;5033300;28;20395;-75
2024/02/25 11:28:09;;;;;;;3.47;1.27;;;12.30;26.50;;;;;;5034005;28;20385;-78
2024/02/25 11:30:45;;;;;;;3.97;1.00;;;12.30;26.30;;;;;;5037074;28;20387;-75
2024/02/25 11:33:42;;;;;;;2.50;1.30;;;12.30;25.70;;;;;;5039372;28;20387;-76
2024/02/25 11:36:13;;;;;;;2.80;1.30;;;12.10;25.90;;;;;;5042039;28;20387;-75
2024/02/25 11:38:43;;;;;;;4.97;1.10;;;12.00;26.40;;;;;;5045575;28;20423;-77
2024/02/25 11:41:11;;;;;;;1.77;1.10;;;11.80;25.90;;;;;;5046584;28;20905;-77
2024/02/25 11:43:37;;;;;;;3.60;1.33;;;11.70;26.20;;;;;;5034002;28;20734;-76
2024/02/25 11:46:06;;;;;;;3.10;1.30;;;11.70;26.00;;;;;;5033530;28;20383;-77
2024/02/25 11:48:34;;;;;;;4.95;1.10;;;11.90;25.50;;;;;;5034281;28;20402;-76
2024/02/25 11:51:00;;;;;;;5.30;1.52;;;12.00;25.60;;;;;;5034828;28;20398;-76
2024/02/25 11:53:26;;;;;;;4.25;1.40;;;12.10;25.50;;;;;;5034154;28;20802;-77
2024/02/25 11:55:52;;;;;;;2.87;1.30;;;12.50;24.80;;;;;;5031714;28;20391;-77
2024/02/25 11:58:18;;;;;;;4.85;1.48;;;12.60;24.20;;;;;;5049257;28;20454;-76
2024/02/25 12:00:44;;;;;;;4.95;1.30;;;12.70;23.90;;;;;;5034007;28;20418;-76
2024/02/25 12:03:10;;;;;;;2.45;1.20;;;12.70;23.20;;;;;;5033749;28;20379;-77
2024/02/25 12:05:36;;;;;;;3.33;1.13;;;12.60;22.90;;;;;;5033024;28;20444;-77
2024/02/25 12:08:02;;;;;;;4.95;1.30;;;12.60;22.50;;;;;;5034072;28;20878;-76
2024/02/25 12:10:28;;;;;;;4.47;1.50;;;12.30;23.00;;;;;;5033102;28;20394;-77
2024/02/25 12:12:55;;;;;;;3.00;1.20;;;12.20;23.10;;;;;;5032997;28;20387;-76
2024/02/25 12:15:26;;;;;;;1.70;1.08;;;12.00;23.50;;;;;;5032955;28;20391;-77
2024/02/25 12:17:52;;;;;;;4.18;1.40;;;11.90;24.60;;;;;;5031835;28;20383;-77
2024/02/25 12:20:19;;;;;;;3.67;1.50;;;11.90;25.10;;;;;;5032187;28;20428;-76
2024/02/25 12:22:45;;;;;;;2.33;1.17;;;12.10;25.00;;;;;;5033028;28;20726;-77
2024/02/25 12:25:18;;;;;;;3.10;1.20;;;12.50;24.30;;;;;;5032662;28;20867;-75
2024/02/25 12:27:48;;;;;;;1.92;1.10;;;12.60;23.90;;;;;;5033956;28;20383;-75
2024/02/25 12:30:14;;;;;;;3.30;1.30;;;12.60;23.20;;;;;;5033737;28;20398;-76
2024/02/25 12:32:41;;;;;;;2.42;1.30;;;12.60;23.30;;;;;;5032145;28;20473;-77
2024/02/25 12:35:08;;;;;;;2.38;1.30;;;12.50;23.60;;;;;;5034407;28;20449;-76
2024/02/25 12:37:34;;;;;;;4.70;1.40;;;12.40;23.80;;;;;;5034890;28;20383;-76
2024/02/25 12:40:00;;;;;;;3.53;1.30;;;12.70;23.60;;;;;;5032030;28;20414;-76
2024/02/25 12:42:28;;;;;;;5.75;1.27;;;12.30;23.60;;;;;;5034364;28;20910;-78
2024/02/25 12:44:54;;;;;;;6.82;1.38;;;12.10;24.30;;;;;;5033095;28;20378;-76
2024/02/25 12:47:20;;;;;;;3.20;1.20;;;12.00;24.60;;;;;;5032493;28;20455;-74
2024/02/25 12:49:49;;;;;;;3.00;1.20;;;11.90;25.30;;;;;;5035909;28;20389;-76
2024/02/25 12:52:15;;;;;;;3.30;1.40;;;11.90;25.00;;;;;;5033830;28;20387;-77